sensor_id;sensor_type;location;lat;lon;timestamp;pressure;altitude;pressure_sealevel;temperature;humidity
77431;BME280;66498;48.564;19.272;2023-11-19T00:01:07;97962.56;;;-1.60;100.00
77431;BME280;66498;48.564;19.272;2023-11-19T00:03:33;97953.22;;;-1.52;100.00
77431;BME280;66498;48.564;19.272;2023-11-19T00:05:59;97975.16;;;-1.57;100.00
77431;BME280;66498;48.564;19.272;2023-11-19T00:08:24;97981.69;;;-1.34;100.00
77431;BME280;66498;48.564;19.272;2023-11-19T00:10:50;97979.25;;;-1.35;100.00
77431;BME280;66498;48.564;19.272;2023-11-19T00:13:16;97983.97;;;-1.50;100.00
77431;BME280;66498;48.564;19.272;2023-11-19T00:15:42;97986.00;;;-1.63;100.00
77431;BME280;66498;48.564;19.272;2023-11-19T00:18:07;97991.66;;;-1.79;100.00
77431;BME280;66498;48.564;19.272;2023-11-19T00:20:33;97980.28;;;-1.86;100.00
77431;BME280;66498;48.564;19.272;2023-11-19T00:22:58;97971.84;;;-1.98;100.00
77431;BME280;66498;48.564;19.272;2023-11-19T00:25:24;97951.78;;;-2.04;100.00
77431;BME280;66498;48.564;19.272;2023-11-19T00:27:51;97956.41;;;-1.98;100.00
77431;BME280;66498;48.564;19.272;2023-11-19T00:30:18;97957.72;;;-2.04;100.00
77431;BME280;66498;48.564;19.272;2023-11-19T00:32:44;97960.84;;;-2.10;100.00
77431;BME280;66498;48.564;19.272;2023-11-19T00:35:10;97972.69;;;-1.78;100.00
77431;BME280;66498;48.564;19.272;2023-11-19T00:37:36;97973.75;;;-1.81;100.00
77431;BME280;66498;48.564;19.272;2023-11-19T00:40:02;97961.03;;;-1.82;100.00
77431;BME280;66498;48.564;19.272;2023-11-19T00:42:30;97954.00;;;-1.71;100.00
77431;BME280;66498;48.564;19.272;2023-11-19T00:44:56;97955.91;;;-1.73;100.00
77431;BME280;66498;48.564;19.272;2023-11-19T00:47:21;97969.28;;;-1.88;100.00
77431;BME280;66498;48.564;19.272;2023-11-19T00:49:47;97962.97;;;-1.65;100.00
77431;BME280;66498;48.564;19.272;2023-11-19T00:52:16;97962.13;;;-1.75;100.00
77431;BME280;66498;48.564;19.272;2023-11-19T00:54:42;97962.13;;;-1.75;100.00
77431;BME280;66498;48.564;19.272;2023-11-19T00:57:08;97959.81;;;-1.78;100.00
77431;BME280;66498;48.564;19.272;2023-11-19T00:59:33;97960.50;;;-1.86;100.00
77431;BME280;66498;48.564;19.272;2023-11-19T01:01:59;97952.09;;;-1.88;100.00
77431;BME280;66498;48.564;19.272;2023-11-19T01:04:37;97955.19;;;-1.94;100.00
77431;BME280;66498;48.564;19.272;2023-11-19T01:07:04;97960.47;;;-1.96;100.00
77431;BME280;66498;48.564;19.272;2023-11-19T01:09:31;97954.75;;;-2.09;100.00
77431;BME280;66498;48.564;19.272;2023-11-19T01:12:00;97954.09;;;-2.01;100.00
77431;BME280;66498;48.564;19.272;2023-11-19T01:14:26;97965.13;;;-1.80;100.00
77431;BME280;66498;48.564;19.272;2023-11-19T01:16:51;97956.84;;;-1.64;100.00
77431;BME280;66498;48.564;19.272;2023-11-19T01:19:19;97953.34;;;-1.73;100.00
77431;BME280;66498;48.564;19.272;2023-11-19T01:21:44;97944.66;;;-1.13;100.00
77431;BME280;66498;48.564;19.272;2023-11-19T01:24:10;97946.84;;;-1.18;100.00
77431;BME280;66498;48.564;19.272;2023-11-19T01:26:38;97951.16;;;-1.77;100.00
77431;BME280;66498;48.564;19.272;2023-11-19T01:29:03;97948.00;;;-1.91;100.00
77431;BME280;66498;48.564;19.272;2023-11-19T01:31:30;97943.69;;;-2.00;100.00
77431;BME280;66498;48.564;19.272;2023-11-19T01:33:57;97939.38;;;-1.80;100.00
77431;BME280;66498;48.564;19.272;2023-11-19T01:36:22;97948.44;;;-1.85;100.00
77431;BME280;66498;48.564;19.272;2023-11-19T01:38:48;97955.09;;;-1.83;100.00
77431;BME280;66498;48.564;19.272;2023-11-19T01:41:14;97943.00;;;-1.92;100.00
77431;BME280;66498;48.564;19.272;2023-11-19T01:43:39;97946.13;;;-1.88;100.00
77431;BME280;66498;48.564;19.272;2023-11-19T01:46:08;97944.50;;;-1.89;100.00
77431;BME280;66498;48.564;19.272;2023-11-19T01:48:41;97939.47;;;-1.91;100.00
77431;BME280;66498;48.564;19.272;2023-11-19T01:51:08;97932.31;;;-1.78;100.00
77431;BME280;66498;48.564;19.272;2023-11-19T01:53:35;97929.34;;;-1.63;100.00
77431;BME280;66498;48.564;19.272;2023-11-19T01:56:02;97930.47;;;-1.66;100.00
77431;BME280;66498;48.564;19.272;2023-11-19T01:58:28;97934.78;;;-1.76;100.00
77431;BME280;66498;48.564;19.272;2023-11-19T02:00:56;97933.22;;;-2.08;100.00
77431;BME280;66498;48.564;19.272;2023-11-19T02:03:22;97929.66;;;-2.26;100.00
77431;BME280;66498;48.564;19.272;2023-11-19T02:05:51;97928.50;;;-2.03;100.00
77431;BME280;66498;48.564;19.272;2023-11-19T02:08:18;97935.03;;;-1.89;100.00
77431;BME280;66498;48.564;19.272;2023-11-19T02:10:44;97916.31;;;-2.01;100.00
77431;BME280;66498;48.564;19.272;2023-11-19T02:13:10;97911.28;;;-2.12;100.00
77431;BME280;66498;48.564;19.272;2023-11-19T02:15:35;97912.66;;;-1.98;100.00
77431;BME280;66498;48.564;19.272;2023-11-19T02:18:30;97905.81;;;-2.28;100.00
77431;BME280;66498;48.564;19.272;2023-11-19T02:20:59;97904.19;;;-2.29;100.00
77431;BME280;66498;48.564;19.272;2023-11-19T02:23:28;97903.66;;;-2.33;100.00
77431;BME280;66498;48.564;19.272;2023-11-19T02:26:00;97897.69;;;-2.33;100.00
77431;BME280;66498;48.564;19.272;2023-11-19T02:28:27;97892.22;;;-2.50;100.00
77431;BME280;66498;48.564;19.272;2023-11-19T02:30:53;97883.84;;;-2.42;100.00
77431;BME280;66498;48.564;19.272;2023-11-19T02:33:18;97883.66;;;-2.20;100.00
77431;BME280;66498;48.564;19.272;2023-11-19T02:35:44;97879.06;;;-2.16;100.00
77431;BME280;66498;48.564;19.272;2023-11-19T02:38:09;97850.97;;;-2.39;100.00
77431;BME280;66498;48.564;19.272;2023-11-19T02:40:35;97841.88;;;-2.52;100.00
77431;BME280;66498;48.564;19.272;2023-11-19T02:43:00;97848.38;;;-2.48;100.00
77431;BME280;66498;48.564;19.272;2023-11-19T02:45:27;97855.38;;;-2.10;100.00
77431;BME280;66498;48.564;19.272;2023-11-19T02:47:53;97868.88;;;-2.18;100.00
77431;BME280;66498;48.564;19.272;2023-11-19T02:50:20;97877.16;;;-2.24;100.00
77431;BME280;66498;48.564;19.272;2023-11-19T02:52:55;97862.84;;;-2.07;100.00
77431;BME280;66498;48.564;19.272;2023-11-19T02:55:24;97861.47;;;-2.01;100.00
77431;BME280;66498;48.564;19.272;2023-11-19T02:57:51;97841.56;;;-1.99;100.00
77431;BME280;66498;48.564;19.272;2023-11-19T03:00:20;97846.56;;;-1.98;100.00
77431;BME280;66498;48.564;19.272;2023-11-19T03:02:49;97834.38;;;-2.05;100.00
77431;BME280;66498;48.564;19.272;2023-11-19T03:05:23;97837.22;;;-2.08;100.00
77431;BME280;66498;48.564;19.272;2023-11-19T03:07:49;97831.50;;;-2.31;100.00
77431;BME280;66498;48.564;19.272;2023-11-19T03:10:14;97831.31;;;-1.80;100.00
77431;BME280;66498;48.564;19.272;2023-11-19T03:12:40;97829.78;;;-1.92;100.00
77431;BME280;66498;48.564;19.272;2023-11-19T03:15:07;97819.19;;;-1.60;100.00
77431;BME280;66498;48.564;19.272;2023-11-19T03:17:34;97831.66;;;-1.46;100.00
77431;BME280;66498;48.564;19.272;2023-11-19T03:20:00;97846.16;;;-1.74;100.00
77431;BME280;66498;48.564;19.272;2023-11-19T03:22:26;97848.88;;;-1.85;100.00
77431;BME280;66498;48.564;19.272;2023-11-19T03:24:52;97829.25;;;-1.86;100.00
77431;BME280;66498;48.564;19.272;2023-11-19T03:27:17;97818.44;;;-1.89;100.00
77431;BME280;66498;48.564;19.272;2023-11-19T03:29:42;97814.63;;;-2.05;100.00
77431;BME280;66498;48.564;19.272;2023-11-19T03:32:08;97811.25;;;-2.05;100.00
77431;BME280;66498;48.564;19.272;2023-11-19T03:34:34;97813.66;;;-2.04;100.00
77431;BME280;66498;48.564;19.272;2023-11-19T03:36:59;97816.66;;;-1.79;100.00
77431;BME280;66498;48.564;19.272;2023-11-19T03:39:25;97822.75;;;-1.71;100.00
77431;BME280;66498;48.564;19.272;2023-11-19T03:41:50;97820.03;;;-1.79;100.00
77431;BME280;66498;48.564;19.272;2023-11-19T03:44:16;97808.41;;;-1.83;100.00
77431;BME280;66498;48.564;19.272;2023-11-19T03:46:42;97810.00;;;-1.62;100.00
77431;BME280;66498;48.564;19.272;2023-11-19T03:49:07;97797.97;;;-1.72;100.00
77431;BME280;66498;48.564;19.272;2023-11-19T03:51:33;97790.78;;;-1.87;100.00
77431;BME280;66498;48.564;19.272;2023-11-19T03:54:00;97784.97;;;-1.99;100.00
77431;BME280;66498;48.564;19.272;2023-11-19T03:56:26;97780.09;;;-2.22;100.00
77431;BME280;66498;48.564;19.272;2023-11-19T03:58:52;97783.19;;;-2.28;100.00
77431;BME280;66498;48.564;19.272;2023-11-19T04:01:17;97792.56;;;-2.17;100.00
77431;BME280;66498;48.564;19.272;2023-11-19T04:03:43;97781.88;;;-1.93;100.00
77431;BME280;66498;48.564;19.272;2023-11-19T04:06:09;97769.50;;;-2.38;100.00
77431;BME280;66498;48.564;19.272;2023-11-19T04:08:34;97771.44;;;-2.40;100.00
77431;BME280;66498;48.564;19.272;2023-11-19T04:11:02;97777.22;;;-2.38;100.00
77431;BME280;66498;48.564;19.272;2023-11-19T04:13:27;97774.28;;;-2.33;100.00
77431;BME280;66498;48.564;19.272;2023-11-19T04:15:53;97772.38;;;-2.41;100.00
77431;BME280;66498;48.564;19.272;2023-11-19T04:18:18;97770.06;;;-2.25;100.00
77431;BME280;66498;48.564;19.272;2023-11-19T04:20:44;97761.56;;;-1.86;100.00
77431;BME280;66498;48.564;19.272;2023-11-19T04:23:09;97755.03;;;-2.39;100.00
77431;BME280;66498;48.564;19.272;2023-11-19T04:25:35;97749.50;;;-2.54;100.00
77431;BME280;66498;48.564;19.272;2023-11-19T04:28:00;97743.13;;;-2.59;100.00
77431;BME280;66498;48.564;19.272;2023-11-19T04:30:27;97739.09;;;-2.33;100.00
77431;BME280;66498;48.564;19.272;2023-11-19T04:32:52;97743.81;;;-2.57;100.00
77431;BME280;66498;48.564;19.272;2023-11-19T04:35:18;97745.16;;;-2.24;100.00
77431;BME280;66498;48.564;19.272;2023-11-19T04:37:44;97741.78;;;-2.25;100.00
77431;BME280;66498;48.564;19.272;2023-11-19T04:40:10;97741.41;;;-2.20;100.00
77431;BME280;66498;48.564;19.272;2023-11-19T04:42:37;97740.97;;;-2.25;100.00
77431;BME280;66498;48.564;19.272;2023-11-19T04:45:06;97750.44;;;-2.35;100.00
77431;BME280;66498;48.564;19.272;2023-11-19T04:47:35;97758.16;;;-2.26;100.00
77431;BME280;66498;48.564;19.272;2023-11-19T04:50:00;97759.09;;;-2.46;100.00
77431;BME280;66498;48.564;19.272;2023-11-19T04:52:26;97765.06;;;-1.97;100.00
77431;BME280;66498;48.564;19.272;2023-11-19T04:54:51;97768.16;;;-1.84;100.00
77431;BME280;66498;48.564;19.272;2023-11-19T04:57:17;97769.38;;;-1.88;100.00
77431;BME280;66498;48.564;19.272;2023-11-19T04:59:43;97774.81;;;-1.91;100.00
77431;BME280;66498;48.564;19.272;2023-11-19T05:02:09;97782.25;;;-1.78;100.00
77431;BME280;66498;48.564;19.272;2023-11-19T05:04:34;97782.41;;;-1.89;100.00
77431;BME280;66498;48.564;19.272;2023-11-19T05:07:00;97783.06;;;-1.97;100.00
77431;BME280;66498;48.564;19.272;2023-11-19T05:09:26;97768.19;;;-2.13;100.00
77431;BME280;66498;48.564;19.272;2023-11-19T05:11:52;97776.31;;;-1.88;100.00
77431;BME280;66498;48.564;19.272;2023-11-19T05:14:17;97771.44;;;-2.01;100.00
77431;BME280;66498;48.564;19.272;2023-11-19T05:16:45;97772.66;;;-1.96;100.00
77431;BME280;66498;48.564;19.272;2023-11-19T05:19:10;97776.69;;;-1.74;100.00
77431;BME280;66498;48.564;19.272;2023-11-19T05:21:36;97777.38;;;-2.01;100.00
77431;BME280;66498;48.564;19.272;2023-11-19T05:24:02;97782.94;;;-2.05;100.00
77431;BME280;66498;48.564;19.272;2023-11-19T05:26:30;97783.06;;;-1.87;100.00
77431;BME280;66498;48.564;19.272;2023-11-19T05:28:56;97785.63;;;-1.97;100.00
77431;BME280;66498;48.564;19.272;2023-11-19T05:31:21;97787.94;;;-1.75;100.00
77431;BME280;66498;48.564;19.272;2023-11-19T05:33:47;97777.53;;;-1.83;100.00
77431;BME280;66498;48.564;19.272;2023-11-19T05:36:13;97782.78;;;-2.04;100.00
77431;BME280;66498;48.564;19.272;2023-11-19T05:38:39;97775.38;;;-2.07;100.00
77431;BME280;66498;48.564;19.272;2023-11-19T05:41:04;97763.84;;;-1.93;100.00
77431;BME280;66498;48.564;19.272;2023-11-19T05:43:31;97757.63;;;-2.00;100.00
77431;BME280;66498;48.564;19.272;2023-11-19T05:45:56;97760.31;;;-1.92;100.00
77431;BME280;66498;48.564;19.272;2023-11-19T05:48:22;97764.50;;;-2.01;100.00
77431;BME280;66498;48.564;19.272;2023-11-19T05:50:48;97765.75;;;-1.85;100.00
77431;BME280;66498;48.564;19.272;2023-11-19T05:53:15;97774.81;;;-2.01;100.00
77431;BME280;66498;48.564;19.272;2023-11-19T05:55:40;97787.97;;;-2.13;100.00
77431;BME280;66498;48.564;19.272;2023-11-19T05:58:14;97775.50;;;-2.18;100.00
77431;BME280;66498;48.564;19.272;2023-11-19T06:00:39;97769.53;;;-2.09;100.00
77431;BME280;66498;48.564;19.272;2023-11-19T06:03:08;97754.50;;;-1.94;100.00
77431;BME280;66498;48.564;19.272;2023-11-19T06:05:34;97755.44;;;-2.05;100.00
77431;BME280;66498;48.564;19.272;2023-11-19T06:07:59;97747.03;;;-1.97;100.00
77431;BME280;66498;48.564;19.272;2023-11-19T06:10:25;97740.97;;;-1.86;100.00
77431;BME280;66498;48.564;19.272;2023-11-19T06:12:59;97731.88;;;-1.91;100.00
77431;BME280;66498;48.564;19.272;2023-11-19T06:15:28;97737.97;;;-1.82;100.00
77431;BME280;66498;48.564;19.272;2023-11-19T06:17:53;97727.84;;;-1.93;100.00
77431;BME280;66498;48.564;19.272;2023-11-19T06:20:20;97715.25;;;-1.96;100.00
77431;BME280;66498;48.564;19.272;2023-11-19T06:22:46;97728.34;;;-1.80;100.00
77431;BME280;66498;48.564;19.272;2023-11-19T06:25:12;97732.66;;;-1.80;100.00
77431;BME280;66498;48.564;19.272;2023-11-19T06:27:40;97734.06;;;-1.86;100.00
77431;BME280;66498;48.564;19.272;2023-11-19T06:30:09;97736.91;;;-1.89;100.00
77431;BME280;66498;48.564;19.272;2023-11-19T06:32:35;97742.41;;;-1.74;100.00
77431;BME280;66498;48.564;19.272;2023-11-19T06:35:00;97740.53;;;-1.72;100.00
77431;BME280;66498;48.564;19.272;2023-11-19T06:37:26;97742.06;;;-1.42;100.00
77431;BME280;66498;48.564;19.272;2023-11-19T06:39:52;97741.22;;;-1.33;100.00
77431;BME280;66498;48.564;19.272;2023-11-19T06:42:18;97745.19;;;-1.38;100.00
77431;BME280;66498;48.564;19.272;2023-11-19T06:44:43;97763.50;;;-1.41;100.00
77431;BME280;66498;48.564;19.272;2023-11-19T06:47:09;97748.38;;;-1.27;100.00
77431;BME280;66498;48.564;19.272;2023-11-19T06:49:34;97752.13;;;-1.11;100.00
77431;BME280;66498;48.564;19.272;2023-11-19T06:52:00;97737.91;;;-1.53;100.00
77431;BME280;66498;48.564;19.272;2023-11-19T06:54:25;97733.03;;;-1.56;100.00
77431;BME280;66498;48.564;19.272;2023-11-19T06:56:51;97730.25;;;-1.35;100.00
77431;BME280;66498;48.564;19.272;2023-11-19T06:59:17;97740.09;;;-1.21;100.00
77431;BME280;66498;48.564;19.272;2023-11-19T07:01:42;97740.38;;;-1.24;100.00
77431;BME280;66498;48.564;19.272;2023-11-19T07:04:11;97744.88;;;-1.26;100.00
77431;BME280;66498;48.564;19.272;2023-11-19T07:06:38;97736.72;;;-1.21;100.00
77431;BME280;66498;48.564;19.272;2023-11-19T07:09:06;97741.44;;;-1.16;100.00
77431;BME280;66498;48.564;19.272;2023-11-19T07:11:38;97733.56;;;-1.15;100.00
77431;BME280;66498;48.564;19.272;2023-11-19T07:14:05;97721.81;;;-1.00;100.00
77431;BME280;66498;48.564;19.272;2023-11-19T07:16:32;97713.53;;;-0.93;100.00
77431;BME280;66498;48.564;19.272;2023-11-19T07:19:00;97692.84;;;-1.02;100.00
77431;BME280;66498;48.564;19.272;2023-11-19T07:21:26;97677.31;;;-1.20;100.00
77431;BME280;66498;48.564;19.272;2023-11-19T07:23:54;97666.72;;;-1.44;100.00
77431;BME280;66498;48.564;19.272;2023-11-19T07:26:23;97657.63;;;-1.38;100.00
77431;BME280;66498;48.564;19.272;2023-11-19T07:28:49;97655.53;;;-1.25;100.00
77431;BME280;66498;48.564;19.272;2023-11-19T07:31:16;97689.63;;;-1.13;100.00
77431;BME280;66498;48.564;19.272;2023-11-19T07:33:43;97753.63;;;-0.81;100.00
77431;BME280;66498;48.564;19.272;2023-11-19T07:36:09;97726.06;;;-0.81;100.00
77431;BME280;66498;48.564;19.272;2023-11-19T07:38:35;97717.66;;;-0.83;100.00
77431;BME280;66498;48.564;19.272;2023-11-19T07:41:01;97715.38;;;-0.86;100.00
77431;BME280;66498;48.564;19.272;2023-11-19T07:43:26;97720.25;;;-0.83;100.00
77431;BME280;66498;48.564;19.272;2023-11-19T07:45:52;97705.34;;;-0.89;100.00
77431;BME280;66498;48.564;19.272;2023-11-19T07:48:17;97698.13;;;-0.58;100.00
77431;BME280;66498;48.564;19.272;2023-11-19T07:50:51;97685.28;;;-0.32;100.00
77431;BME280;66498;48.564;19.272;2023-11-19T07:53:17;97690.69;;;-0.88;100.00
77431;BME280;66498;48.564;19.272;2023-11-19T07:55:43;97678.28;;;-0.57;100.00
77431;BME280;66498;48.564;19.272;2023-11-19T07:58:10;97695.28;;;-0.29;100.00
77431;BME280;66498;48.564;19.272;2023-11-19T08:00:36;97692.88;;;-0.48;100.00
77431;BME280;66498;48.564;19.272;2023-11-19T08:03:03;97692.78;;;-0.74;100.00
77431;BME280;66498;48.564;19.272;2023-11-19T08:05:28;97690.66;;;-0.61;100.00
77431;BME280;66498;48.564;19.272;2023-11-19T08:07:54;97686.69;;;-0.73;100.00
77431;BME280;66498;48.564;19.272;2023-11-19T08:10:20;97687.72;;;-0.48;100.00
77431;BME280;66498;48.564;19.272;2023-11-19T08:12:45;97699.41;;;-0.18;100.00
77431;BME280;66498;48.564;19.272;2023-11-19T08:15:11;97694.03;;;-0.07;100.00
77431;BME280;66498;48.564;19.272;2023-11-19T08:17:37;97690.56;;;-0.15;100.00
77431;BME280;66498;48.564;19.272;2023-11-19T08:20:03;97699.00;;;0.13;100.00
77431;BME280;66498;48.564;19.272;2023-11-19T08:22:30;97683.06;;;-0.27;100.00
77431;BME280;66498;48.564;19.272;2023-11-19T08:24:56;97667.03;;;-0.12;100.00
77431;BME280;66498;48.564;19.272;2023-11-19T08:27:21;97664.31;;;0.15;100.00
77431;BME280;66498;48.564;19.272;2023-11-19T08:29:55;97656.69;;;0.06;100.00
77431;BME280;66498;48.564;19.272;2023-11-19T08:32:24;97645.25;;;0.08;100.00
77431;BME280;66498;48.564;19.272;2023-11-19T08:34:50;97652.13;;;-0.01;100.00
77431;BME280;66498;48.564;19.272;2023-11-19T08:37:15;97657.41;;;0.50;100.00
77431;BME280;66498;48.564;19.272;2023-11-19T08:39:43;97643.47;;;0.35;100.00
77431;BME280;66498;48.564;19.272;2023-11-19T08:42:09;97644.88;;;0.63;100.00
77431;BME280;66498;48.564;19.272;2023-11-19T08:44:34;97644.66;;;0.49;100.00
77431;BME280;66498;48.564;19.272;2023-11-19T08:47:00;97639.63;;;0.47;100.00
77431;BME280;66498;48.564;19.272;2023-11-19T08:49:25;97648.84;;;0.50;100.00
77431;BME280;66498;48.564;19.272;2023-11-19T08:51:51;97654.47;;;0.87;100.00
77431;BME280;66498;48.564;19.272;2023-11-19T08:54:16;97647.25;;;0.57;100.00
77431;BME280;66498;48.564;19.272;2023-11-19T08:56:42;97647.69;;;0.86;100.00
77431;BME280;66498;48.564;19.272;2023-11-19T08:59:08;97654.28;;;0.81;100.00
77431;BME280;66498;48.564;19.272;2023-11-19T09:01:34;97648.06;;;0.57;100.00
77431;BME280;66498;48.564;19.272;2023-11-19T09:03:59;97652.28;;;0.58;100.00
77431;BME280;66498;48.564;19.272;2023-11-19T09:06:25;97650.84;;;0.30;100.00
77431;BME280;66498;48.564;19.272;2023-11-19T09:08:50;97650.16;;;0.19;100.00
77431;BME280;66498;48.564;19.272;2023-11-19T09:11:17;97637.09;;;0.21;100.00
77431;BME280;66498;48.564;19.272;2023-11-19T09:13:43;97633.50;;;0.14;100.00
77431;BME280;66498;48.564;19.272;2023-11-19T09:16:11;97633.19;;;0.17;100.00
77431;BME280;66498;48.564;19.272;2023-11-19T09:18:37;97625.59;;;0.15;100.00
77431;BME280;66498;48.564;19.272;2023-11-19T09:21:03;97615.56;;;0.46;100.00
77431;BME280;66498;48.564;19.272;2023-11-19T09:23:28;97616.06;;;0.50;100.00
77431;BME280;66498;48.564;19.272;2023-11-19T09:25:58;97606.66;;;0.75;100.00
77431;BME280;66498;48.564;19.272;2023-11-19T09:28:23;97603.22;;;0.58;100.00
77431;BME280;66498;48.564;19.272;2023-11-19T09:30:50;97602.84;;;0.53;100.00
77431;BME280;66498;48.564;19.272;2023-11-19T09:33:16;97594.91;;;0.46;100.00
77431;BME280;66498;48.564;19.272;2023-11-19T09:35:42;97619.91;;;0.38;100.00
77431;BME280;66498;48.564;19.272;2023-11-19T09:38:07;97624.03;;;0.22;100.00
77431;BME280;66498;48.564;19.272;2023-11-19T09:40:35;97631.56;;;0.16;100.00
77431;BME280;66498;48.564;19.272;2023-11-19T09:43:01;97620.63;;;0.22;100.00
77431;BME280;66498;48.564;19.272;2023-11-19T09:45:27;97612.38;;;0.44;100.00
77431;BME280;66498;48.564;19.272;2023-11-19T09:47:55;97611.91;;;0.57;100.00
77431;BME280;66498;48.564;19.272;2023-11-19T09:50:22;97616.88;;;0.42;100.00
77431;BME280;66498;48.564;19.272;2023-11-19T09:52:48;97618.34;;;0.19;100.00
77431;BME280;66498;48.564;19.272;2023-11-19T09:55:14;97620.09;;;0.10;100.00
77431;BME280;66498;48.564;19.272;2023-11-19T09:57:40;97615.53;;;0.04;100.00
77431;BME280;66498;48.564;19.272;2023-11-19T10:00:10;97601.94;;;-0.06;100.00
77431;BME280;66498;48.564;19.272;2023-11-19T10:02:37;97598.41;;;0.03;100.00
77431;BME280;66498;48.564;19.272;2023-11-19T10:05:05;97585.41;;;0.13;100.00
77431;BME280;66498;48.564;19.272;2023-11-19T10:07:32;97579.34;;;0.22;100.00
